Time;durP1;ratioP1;P1;durP2;ratioP2;P2;SDS_P1;SDS_P2;PMS_P1;PMS_P2;Temp;Humidity;BMP_temperature;BMP_pressure;BME280_temperature;BME280_humidity;BME280_pressure;Samples;Min_cycle;Max_cycle;Signal;HPM_P1;HPM_P2
2022/03/07 00:02:16;;;;;;;8.43;4.67;;;;;;;11.29;43.32;102643.75;4889191;29;20032;-47
2022/03/07 00:04:41;;;;;;;7.23;4.53;;;;;;;11.28;43.56;102644.75;4910997;29;20040;-50
2022/03/07 00:07:07;;;;;;;9.00;4.47;;;;;;;11.27;43.43;102638.53;4880172;29;20039;-49
2022/03/07 00:09:32;;;;;;;10.80;5.63;;;;;;;11.18;43.26;102644.84;4904266;29;20092;-47
2022/03/07 00:11:58;;;;;;;9.67;5.00;;;;;;;11.02;43.64;102637.50;4915385;29;20041;-48
2022/03/07 00:14:23;;;;;;;11.30;5.87;;;;;;;10.86;43.78;102631.00;4906339;29;20029;-46
2022/03/07 00:16:49;;;;;;;11.30;5.13;;;;;;;10.66;44.36;102643.72;4909861;29;20063;-49
2022/03/07 00:19:14;;;;;;;10.43;5.20;;;;;;;10.52;45.00;102638.88;4912553;29;20052;-46
2022/03/07 00:21:40;;;;;;;8.88;5.40;;;;;;;10.39;45.47;102637.38;4902857;29;20064;-48
2022/03/07 00:24:07;;;;;;;9.17;5.37;;;;;;;10.37;45.27;102639.31;4919550;29;20131;-51
2022/03/07 00:26:34;;;;;;;15.20;5.15;;;;;;;10.24;45.75;102644.22;4912763;29;20052;-50
2022/03/07 00:29:01;;;;;;;8.85;4.72;;;;;;;10.12;46.10;102641.72;4911260;29;20036;-49
2022/03/07 00:31:27;;;;;;;13.57;6.25;;;;;;;10.04;46.17;102650.50;4888440;29;20037;-49
2022/03/07 00:33:53;;;;;;;11.00;5.30;;;;;;;9.95;46.60;102645.19;4915575;29;20041;-47
2022/03/07 00:36:20;;;;;;;11.68;6.32;;;;;;;9.87;47.25;102654.75;4905399;29;20032;-50
2022/03/07 00:38:49;;;;;;;9.15;5.90;;;;;;;9.88;47.31;102656.44;4909874;29;20044;-48
2022/03/07 00:41:15;;;;;;;12.82;7.68;;;;;;;9.77;48.05;102651.28;4897000;29;20671;-51
2022/03/07 00:43:41;;;;;;;9.50;5.68;;;;;;;9.80;47.81;102653.66;4906754;29;20048;-48
2022/03/07 00:46:07;;;;;;;11.33;5.97;;;;;;;9.83;47.69;102653.38;4918162;29;20057;-50
2022/03/07 00:48:34;;;;;;;13.20;5.88;;;;;;;9.74;48.24;102656.94;4910529;29;20025;-47
2022/03/07 00:50:59;;;;;;;10.63;5.60;;;;;;;9.67;48.13;102658.47;4895632;29;20060;-49
2022/03/07 00:53:26;;;;;;;17.33;7.35;;;;;;;9.73;48.04;102665.94;4917160;29;20040;-49
2022/03/07 00:55:53;;;;;;;11.13;6.70;;;;;;;9.70;48.30;102668.91;4890233;29;20041;-50
2022/03/07 00:58:19;;;;;;;11.20;6.07;;;;;;;9.70;48.22;102664.38;4900588;29;20044;-53
2022/03/07 01:00:45;;;;;;;14.38;6.65;;;;;;;9.73;48.08;102665.94;4911686;29;20032;-51
2022/03/07 01:03:12;;;;;;;9.63;5.45;;;;;;;9.72;47.86;102672.25;4910538;29;20044;-48
2022/03/07 01:05:40;;;;;;;12.68;6.63;;;;;;;9.61;48.07;102655.41;4918661;29;20105;-47
2022/03/07 01:08:06;;;;;;;;;;;;;;;9.39;48.82;102661.91;4905965;29;20040;-50
2022/03/07 01:10:33;;;;;;;11.55;5.93;;;;;;;9.42;48.80;102669.66;4898701;29;19944;-50
2022/03/07 01:12:59;;;;;;;11.45;6.78;;;;;;;9.37;49.08;102669.25;4897056;29;20055;-49
2022/03/07 01:15:25;;;;;;;10.68;6.13;;;;;;;9.24;49.23;102668.69;4907772;29;20040;-49
2022/03/07 01:17:53;;;;;;;10.35;6.18;;;;;;;9.30;49.33;102668.09;4918633;29;20051;-47
2022/03/07 01:20:19;;;;;;;12.45;6.68;;;;;;;9.24;49.52;102664.19;4907872;29;20032;-50
2022/03/07 01:22:44;;;;;;;10.60;5.73;;;;;;;9.19;49.46;102663.75;4913456;29;20040;-49
2022/03/07 01:25:10;;;;;;;12.33;7.10;;;;;;;9.13;49.75;102669.66;4914458;29;20037;-52
2022/03/07 01:27:36;;;;;;;15.07;7.25;;;;;;;9.25;49.68;102663.19;4902251;29;20048;-48
2022/03/07 01:30:03;;;;;;;17.98;7.13;;;;;;;9.03;50.39;102661.66;4904329;29;20044;-47
2022/03/07 01:32:29;;;;;;;15.15;7.43;;;;;;;9.13;50.02;102664.31;4914513;29;20041;-47
2022/03/07 01:34:54;;;;;;;12.93;6.47;;;;;;;9.10;50.00;102668.09;4896153;29;20065;-46
2022/03/07 01:37:20;;;;;;;12.65;6.55;;;;;;;9.15;49.94;102671.22;4908735;29;20041;-50
2022/03/07 01:39:48;;;;;;;14.70;6.47;;;;;;;9.14;49.81;102664.19;4918212;29;20076;-47
2022/03/07 01:42:13;;;;;;;11.77;6.30;;;;;;;9.07;50.31;102659.56;4906040;29;20028;-47
2022/03/07 01:44:39;;;;;;;11.32;6.55;;;;;;;9.16;49.75;102664.03;4897537;29;20065;-53
2022/03/07 01:47:06;;;;;;;11.57;7.03;;;;;;;9.15;49.83;102655.19;4897172;29;20056;-47
2022/03/07 01:49:33;;;;;;;16.77;6.43;;;;;;;9.02;50.51;102658.16;4907049;29;20048;-53
2022/03/07 01:51:58;;;;;;;12.32;7.18;;;;;;;9.03;50.55;102654.50;4917549;29;20072;-45
2022/03/07 01:54:25;;;;;;;;;;;;;;;8.97;50.65;102652.38;4907717;29;20044;-48
2022/03/07 01:56:53;;;;;;;9.38;5.93;;;;;;;8.81;51.35;102660.09;4883962;29;19921;-46
2022/03/07 01:59:25;;;;;;;17.92;7.63;;;;;;;8.89;51.27;102657.56;4876609;29;20065;-48
2022/03/07 02:01:51;;;;;;;11.07;6.45;;;;;;;8.97;50.99;102657.72;4867427;29;20030;-47
2022/03/07 02:04:18;;;;;;;11.95;6.60;;;;;;;8.93;51.15;102658.97;4878344;29;20057;-47
2022/03/07 02:06:46;;;;;;;14.63;6.97;;;;;;;8.96;51.02;102657.88;4872158;29;20045;-49
2022/03/07 02:09:12;;;;;;;13.48;6.88;;;;;;;8.94;51.46;102655.31;4879480;29;20042;-47
2022/03/07 02:11:42;;;;;;;13.90;7.00;;;;;;;8.90;51.59;102645.91;4876133;29;20063;-46
2022/03/07 02:14:18;;;;;;;14.38;7.07;;;;;;;8.87;51.75;102646.19;4898179;29;20040;-46
2022/03/07 02:16:48;;;;;;;;;;;;;;;8.81;51.71;102641.44;4880074;29;20098;-45
2022/03/07 02:19:15;;;;;;;12.57;6.70;;;;;;;8.85;51.61;102640.16;4863902;29;19920;-46
2022/03/07 02:21:49;;;;;;;13.35;6.95;;;;;;;8.85;51.84;102645.50;4891517;29;20045;-47
2022/03/07 02:24:25;;;;;;;14.35;7.35;;;;;;;8.82;52.18;102643.13;4869714;29;20096;-46
2022/03/07 02:27:05;;;;;;;12.77;6.70;;;;;;;8.68;52.43;102652.38;4898009;29;20042;-49
2022/03/07 02:29:32;;;;;;;14.07;6.57;;;;;;;8.65;53.25;102640.13;4868650;29;20045;-47
2022/03/07 02:32:06;;;;;;;17.88;7.55;;;;;;;8.66;53.34;102643.66;4879220;29;20060;-48
2022/03/07 02:34:34;;;;;;;14.82;6.93;;;;;;;8.71;53.44;102646.75;4870084;29;20029;-47
2022/03/07 02:37:00;;;;;;;14.65;8.10;;;;;;;8.71;52.92;102642.25;4873427;29;20102;-50
2022/03/07 02:39:32;;;;;;;15.18;6.72;;;;;;;8.70;53.23;102639.72;4877503;29;20045;-47
2022/03/07 02:41:57;;;;;;;11.65;6.80;;;;;;;8.84;52.39;102644.63;4866846;29;20048;-45
2022/03/07 02:44:24;;;;;;;14.07;6.53;;;;;;;8.83;52.43;102640.28;4877155;29;20063;-45
2022/03/07 02:46:50;;;;;;;11.40;6.32;;;;;;;9.12;51.37;102641.28;4872019;29;20057;-46
2022/03/07 02:49:15;;;;;;;10.03;6.17;;;;;;;9.17;50.58;102642.56;4870384;29;20048;-47
2022/03/07 02:51:41;;;;;;;12.07;6.40;;;;;;;9.19;50.66;102645.06;4878315;29;20036;-48
2022/03/07 02:54:06;;;;;;;12.57;6.40;;;;;;;9.07;51.07;102636.34;4866433;29;20056;-49
2022/03/07 02:56:33;;;;;;;12.63;6.90;;;;;;;9.10;50.76;102629.91;4888116;29;20045;-48
2022/03/07 02:58:59;;;;;;;12.57;6.43;;;;;;;9.12;50.47;102634.13;4910844;29;20037;-46
2022/03/07 03:01:24;;;;;;;10.80;6.20;;;;;;;9.08;50.81;102629.22;4907215;29;20064;-47
2022/03/07 03:03:51;;;;;;;11.05;6.63;;;;;;;9.07;50.72;102625.69;4915986;29;20512;-48
2022/03/07 03:06:16;;;;;;;14.40;7.57;;;;;;;8.80;51.60;102629.91;4905114;29;20121;-47
2022/03/07 03:08:42;;;;;;;11.43;6.80;;;;;;;8.64;52.25;102629.59;4912460;29;20029;-46
2022/03/07 03:11:08;;;;;;;15.50;6.75;;;;;;;8.90;51.49;102632.56;4911598;29;20040;-51
2022/03/07 03:13:34;;;;;;;22.77;8.90;;;;;;;8.97;51.06;102630.19;4919807;29;20045;-47
2022/03/07 03:15:59;;;;;;;12.83;7.00;;;;;;;8.92;51.22;102635.94;4903951;29;20037;-48
2022/03/07 03:18:25;;;;;;;13.73;6.87;;;;;;;8.76;52.09;102633.84;4914536;29;20065;-46
2022/03/07 03:20:52;;;;;;;15.57;7.60;;;;;;;8.82;51.54;102637.78;4909495;29;20041;-46
2022/03/07 03:23:18;;;;;;;19.48;7.70;;;;;;;8.68;52.67;102639.84;4907606;29;20039;-46
2022/03/07 03:25:44;;;;;;;13.15;6.70;;;;;;;8.74;52.28;102633.13;4916036;29;20107;-46
2022/03/07 03:28:09;;;;;;;17.37;8.17;;;;;;;8.75;52.12;102637.47;4903845;29;20040;-47
2022/03/07 03:30:35;;;;;;;13.13;8.00;;;;;;;8.72;52.04;102641.25;4913037;29;20065;-47
2022/03/07 03:33:01;;;;;;;13.43;7.50;;;;;;;8.88;51.71;102637.22;4901110;29;20029;-49
2022/03/07 03:35:27;;;;;;;15.40;7.00;;;;;;;8.70;52.10;102640.56;4913739;29;20032;-48
2022/03/07 03:37:53;;;;;;;16.63;8.13;;;;;;;8.74;52.00;102635.81;4903842;29;20059;-46
2022/03/07 03:40:20;;;;;;;15.10;8.35;;;;;;;8.79;51.96;102638.88;4915160;29;20029;-45
2022/03/07 03:42:48;;;;;;;12.80;7.28;;;;;;;8.68;52.26;102637.19;4908408;29;20064;-45
2022/03/07 03:45:14;;;;;;;;;;;;;;;8.74;52.09;102633.13;4908250;29;20077;-46
2022/03/07 03:47:42;;;;;;;15.07;7.80;;;;;;;8.30;53.46;102638.75;4914947;29;19916;-47
2022/03/07 03:50:11;;;;;;;13.95;7.47;;;;;;;8.25;54.21;102636.50;4903566;29;20037;-46
2022/03/07 03:52:37;;;;;;;13.38;7.75;;;;;;;8.03;55.37;102633.06;4896410;29;20136;-47
2022/03/07 03:55:04;;;;;;;;;;;;;;;8.05;55.43;102632.91;4910847;29;20068;-53
2022/03/07 03:57:29;;;;;;;16.15;9.55;;;;;;;8.02;55.97;102631.38;4905601;29;19987;-46
2022/03/07 03:59:56;;;;;;;16.77;7.95;;;;;;;7.91;57.04;102628.81;4915993;29;20044;-48
2022/03/07 04:02:22;;;;;;;16.13;8.20;;;;;;;7.99;56.96;102630.81;4888798;29;20125;-47
2022/03/07 04:04:48;;;;;;;15.80;8.03;;;;;;;7.93;57.41;102626.00;4911214;29;20033;-46
2022/03/07 04:07:13;;;;;;;16.07;7.53;;;;;;;7.78;59.32;102631.69;4911094;29;20033;-48
2022/03/07 04:09:39;;;;;;;16.47;8.27;;;;;;;7.79;59.60;102627.22;4903589;29;20056;-47
2022/03/07 04:12:04;;;;;;;14.25;8.70;;;;;;;7.87;59.16;102632.72;4915506;29;20135;-47
2022/03/07 04:14:30;;;;;;;15.50;7.60;;;;;;;7.93;59.19;102628.69;4905674;29;20036;-45
2022/03/07 04:16:56;;;;;;;14.07;8.13;;;;;;;7.95;58.94;102629.38;4910227;29;20061;-47
2022/03/07 04:19:21;;;;;;;19.13;8.20;;;;;;;7.88;58.92;102629.94;4912272;29;20125;-49
2022/03/07 04:21:47;;;;;;;14.07;7.63;;;;;;;7.80;60.00;102635.06;4903502;29;20041;-47
2022/03/07 04:24:14;;;;;;;14.90;8.57;;;;;;;7.83;60.50;102632.13;4903267;29;20032;-45
2022/03/07 04:26:40;;;;;;;18.45;8.88;;;;;;;7.72;61.37;102637.56;4912214;29;20114;-48
2022/03/07 04:29:10;;;;;;;18.25;8.57;;;;;;;7.72;61.57;102637.56;4910085;29;20068;-45
2022/03/07 04:31:36;;;;;;;14.52;8.32;;;;;;;7.72;61.51;102634.88;4904843;29;20101;-46
2022/03/07 04:34:03;;;;;;;22.30;8.13;;;;;;;7.71;61.71;102643.84;4915494;29;20040;-46
2022/03/07 04:36:29;;;;;;;20.08;9.00;;;;;;;7.67;61.87;102637.94;4888799;29;20063;-48
2022/03/07 04:38:55;;;;;;;17.27;9.27;;;;;;;7.70;61.37;102642.16;4909940;29;20041;-50
2022/03/07 04:41:21;;;;;;;18.15;9.55;;;;;;;7.70;61.85;102651.00;4911758;29;20040;-46
2022/03/07 04:43:47;;;;;;;17.83;8.47;;;;;;;7.58;62.72;102650.22;4903404;29;20045;-45
2022/03/07 04:46:12;;;;;;;17.70;9.40;;;;;;;7.53;63.09;102649.78;4915316;29;20037;-46
2022/03/07 04:48:38;;;;;;;21.93;10.27;;;;;;;7.69;61.98;102648.47;4906143;29;20059;-47
2022/03/07 04:51:04;;;;;;;17.77;9.23;;;;;;;7.66;62.26;102660.22;4908610;29;20060;-50
2022/03/07 04:53:30;;;;;;;23.90;10.57;;;;;;;7.66;61.95;102656.72;4912833;29;20045;-46
2022/03/07 04:55:56;;;;;;;22.40;9.32;;;;;;;7.68;61.62;102649.44;4902953;29;20040;-45
2022/03/07 04:58:21;;;;;;;20.60;10.90;;;;;;;7.41;63.53;102642.84;4914724;29;20033;-45
2022/03/07 05:00:47;;;;;;;20.90;11.13;;;;;;;7.39;64.08;102639.47;4907210;29;20041;-44
2022/03/07 05:03:13;;;;;;;18.90;7.88;;;;;;;7.45;63.79;102649.59;4907735;29;20990;-44
2022/03/07 05:05:38;;;;;;;20.20;10.77;;;;;;;7.34;64.75;102645.19;4913887;29;20047;-44
2022/03/07 05:08:04;;;;;;;26.10;11.53;;;;;;;7.30;65.57;102641.91;4902775;29;20037;-47
2022/03/07 05:10:30;;;;;;;21.98;11.68;;;;;;;7.43;64.20;102636.41;4913265;29;20139;-48
2022/03/07 05:12:55;;;;;;;18.17;8.40;;;;;;;7.35;64.16;102632.69;4908057;29;20037;-48
2022/03/07 05:15:21;;;;;;;21.03;10.60;;;;;;;7.32;65.36;102639.13;4906706;29;20041;-46
2022/03/07 05:17:51;;;;;;;25.47;12.37;;;;;;;7.34;65.64;102639.84;4914821;29;20041;-48
2022/03/07 05:20:17;;;;;;;24.58;12.15;;;;;;;7.25;66.21;102633.47;4918320;29;20275;-46
2022/03/07 05:22:43;;;;;;;23.77;8.95;;;;;;;7.28;65.93;102638.53;4911406;29;20041;-46
2022/03/07 05:25:10;;;;;;;21.95;11.07;;;;;;;7.25;65.93;102641.47;4909670;29;20037;-50
2022/03/07 05:27:37;;;;;;;26.65;12.88;;;;;;;7.26;65.12;102645.81;4900194;29;20101;-49
2022/03/07 05:30:04;;;;;;;24.27;11.10;;;;;;;7.18;66.53;102637.63;4918017;29;20072;-46
2022/03/07 05:32:30;;;;;;;21.42;10.07;;;;;;;7.22;66.07;102639.06;4908026;29;20057;-48
2022/03/07 05:34:56;;;;;;;26.77;11.03;;;;;;;7.26;65.83;102639.63;4913126;29;20045;-48
2022/03/07 05:37:21;;;;;;;23.20;11.20;;;;;;;7.18;66.27;102649.13;4914424;29;20100;-45
2022/03/07 05:39:47;;;;;;;30.83;11.47;;;;;;;7.26;65.98;102636.97;4906243;29;20045;-47
2022/03/07 05:42:12;;;;;;;19.47;10.20;;;;;;;7.27;64.93;102641.34;4917157;29;20089;-46
2022/03/07 05:44:38;;;;;;;24.90;11.17;;;;;;;7.16;66.17;102651.06;4908639;29;20111;-46
2022/03/07 05:47:03;;;;;;;25.02;12.00;;;;;;;7.12;66.36;102648.78;4911945;29;20080;-47
2022/03/07 05:49:30;;;;;;;20.85;11.00;;;;;;;6.85;68.85;102653.63;4899001;29;20039;-47
2022/03/07 05:51:55;;;;;;;26.10;11.70;;;;;;;7.05;68.33;102653.78;4905463;29;20037;-49
2022/03/07 05:54:21;;;;;;;27.90;11.73;;;;;;;7.13;67.12;102659.31;4917296;29;20278;-47
2022/03/07 05:56:46;;;;;;;33.30;13.27;;;;;;;7.05;67.74;102658.25;4909368;29;20049;-48
2022/03/07 05:59:12;;;;;;;16.50;8.17;;;;;;;7.12;67.63;102659.41;4910709;29;20072;-48
2022/03/07 06:01:37;;;;;;;22.27;10.73;;;;;;;7.15;66.62;102665.34;4916092;29;20155;-46
2022/03/07 06:04:03;;;;;;;24.97;11.73;;;;;;;7.20;66.62;102672.09;4905301;29;20045;-47
2022/03/07 06:06:29;;;;;;;25.90;11.50;;;;;;;7.21;66.50;102665.78;4916345;29;20064;-45
2022/03/07 06:08:54;;;;;;;19.90;10.67;;;;;;;7.17;66.41;102668.72;4910334;29;20041;-49
2022/03/07 06:11:20;;;;;;;23.27;9.52;;;;;;;7.17;65.62;102666.06;4909484;29;20067;-48
2022/03/07 06:13:46;;;;;;;19.17;10.27;;;;;;;6.99;68.30;102670.22;4916879;29;20040;-46
2022/03/07 06:16:12;;;;;;;24.27;10.13;;;;;;;7.01;68.42;102676.28;4904914;29;20044;-48
2022/03/07 06:18:38;;;;;;;23.33;10.38;;;;;;;7.07;68.20;102677.59;4914995;29;20060;-46
2022/03/07 06:21:05;;;;;;;24.10;10.88;;;;;;;7.10;67.59;102686.16;4911092;29;20045;-46
2022/03/07 06:23:31;;;;;;;26.00;13.00;;;;;;;7.18;66.94;102681.03;4920821;29;20036;-46
2022/03/07 06:25:57;;;;;;;24.67;11.50;;;;;;;7.15;67.51;102688.44;4905029;29;20041;-46
2022/03/07 06:28:22;;;;;;;23.02;10.13;;;;;;;7.01;68.25;102685.09;4901104;29;20033;-49
2022/03/07 06:30:48;;;;;;;22.27;11.63;;;;;;;6.96;69.26;102681.13;4908792;29;20068;-48
2022/03/07 06:33:15;;;;;;;28.25;12.57;;;;;;;6.89;70.62;102680.78;4909839;29;20021;-51
2022/03/07 06:35:41;;;;;;;27.80;12.55;;;;;;;6.88;70.79;102681.75;4915600;29;20070;-50
2022/03/07 06:38:07;;;;;;;22.17;10.73;;;;;;;6.87;70.78;102680.06;4904281;29;20049;-49
2022/03/07 06:40:33;;;;;;;24.00;10.85;;;;;;;7.03;69.63;102685.81;4914939;29;20037;-47
2022/03/07 06:43:00;;;;;;;24.03;11.93;;;;;;;7.03;69.75;102690.28;4909746;29;20040;-48
2022/03/07 06:45:28;;;;;;;24.02;11.57;;;;;;;7.09;69.10;102688.94;4907932;29;20033;-50
2022/03/07 06:47:53;;;;;;;20.02;10.13;;;;;;;7.11;69.88;102694.97;4916642;29;20072;-47
2022/03/07 06:50:19;;;;;;;24.10;11.37;;;;;;;7.20;67.95;102688.91;4904776;29;20029;-50
2022/03/07 06:52:45;;;;;;;23.70;12.80;;;;;;;7.23;67.81;102687.78;4913447;29;20040;-46
2022/03/07 06:55:12;;;;;;;24.15;11.13;;;;;;;7.21;68.69;102695.06;4911492;29;20129;-48
2022/03/07 06:57:38;;;;;;;27.23;11.60;;;;;;;7.13;69.72;102698.34;4906205;29;20081;-46
2022/03/07 07:00:06;;;;;;;23.50;11.60;;;;;;;7.17;69.55;102694.50;4916559;29;20044;-52
2022/03/07 07:02:31;;;;;;;20.77;11.07;;;;;;;7.23;69.16;102691.31;4905977;29;20056;-49
2022/03/07 07:04:58;;;;;;;23.50;12.05;;;;;;;7.27;68.85;102691.91;4911761;29;20032;-48
2022/03/07 07:07:24;;;;;;;27.52;11.35;;;;;;;7.40;67.55;102699.72;4912622;29;20068;-46
2022/03/07 07:09:50;;;;;;;27.60;11.60;;;;;;;7.41;67.36;102698.75;4903424;29;20044;-46
2022/03/07 07:12:15;;;;;;;20.95;10.43;;;;;;;7.50;66.73;102699.78;4916860;29;20045;-45
2022/03/07 07:14:41;;;;;;;22.03;11.20;;;;;;;7.47;66.77;102691.06;4907038;29;20064;-47
2022/03/07 07:17:07;;;;;;;34.78;12.18;;;;;;;7.65;65.13;102692.31;4910059;29;20051;-47
2022/03/07 07:19:32;;;;;;;24.70;10.87;;;;;;;7.65;64.96;102692.31;4913084;29;20104;-48
2022/03/07 07:21:58;;;;;;;24.60;10.30;;;;;;;7.57;64.89;102691.13;4903779;29;20029;-47
2022/03/07 07:24:23;;;;;;;23.43;11.13;;;;;;;7.75;64.73;102698.53;4915820;29;20037;-48
2022/03/07 07:26:48;;;;;;;21.80;11.03;;;;;;;7.97;63.20;102697.56;4907727;29;20291;-46
2022/03/07 07:29:14;;;;;;;23.92;11.48;;;;;;;8.23;60.92;102696.25;4909030;29;20053;-46
2022/03/07 07:31:40;;;;;;;19.67;10.37;;;;;;;8.40;59.84;102700.97;4914081;29;20054;-48
2022/03/07 07:34:05;;;;;;;21.77;11.00;;;;;;;8.41;59.21;102702.66;4887391;29;20050;-49
2022/03/07 07:36:31;;;;;;;20.87;11.63;;;;;;;8.48;58.00;102700.28;4914571;29;20037;-48
2022/03/07 07:38:56;;;;;;;28.23;11.40;;;;;;;8.39;58.46;102695.75;4892222;29;20060;-50
2022/03/07 07:41:22;;;;;;;27.67;11.50;;;;;;;8.46;58.21;102705.75;4908003;29;20070;-48
2022/03/07 07:43:49;;;;;;;21.43;11.20;;;;;;;8.60;57.35;102701.88;4914956;29;20354;-47
2022/03/07 07:46:15;;;;;;;20.17;10.43;;;;;;;8.67;56.90;102698.69;4903087;29;20048;-49
2022/03/07 07:48:41;;;;;;;18.58;9.68;;;;;;;8.83;56.45;102708.84;4902793;29;20069;-50
2022/03/07 07:51:06;;;;;;;19.57;10.00;;;;;;;8.94;55.96;102700.69;4918535;29;20116;-50
2022/03/07 07:53:32;;;;;;;20.70;10.50;;;;;;;8.97;55.69;102699.56;4906535;29;20100;-48
2022/03/07 07:55:57;;;;;;;24.93;10.57;;;;;;;8.92;55.72;102708.00;4898893;29;20052;-46
2022/03/07 07:58:23;;;;;;;31.50;10.70;;;;;;;9.06;55.54;102697.91;4900589;29;20047;-49
2022/03/07 08:00:48;;;;;;;21.35;10.85;;;;;;;8.96;55.85;102703.22;4906999;29;20048;-48
2022/03/07 08:03:14;;;;;;;20.67;11.25;;;;;;;9.01;56.05;102704.50;4908639;29;20069;-50
2022/03/07 08:05:40;;;;;;;28.63;11.97;;;;;;;8.98;56.41;102706.59;4913553;29;20064;-52
2022/03/07 08:08:05;;;;;;;19.50;10.27;;;;;;;9.08;55.57;102707.44;4903136;29;20092;-48
2022/03/07 08:10:31;;;;;;;25.43;11.47;;;;;;;9.20;55.44;102702.81;4914336;29;20037;-50
2022/03/07 08:12:57;;;;;;;21.40;11.23;;;;;;;9.31;54.88;102712.50;4907821;29;20064;-48
2022/03/07 08:15:23;;;;;;;30.75;10.80;;;;;;;9.38;54.33;102710.13;4907814;29;20069;-48
2022/03/07 08:17:50;;;;;;;19.83;10.20;;;;;;;9.26;54.93;102710.28;4913828;29;20045;-49
2022/03/07 08:20:21;;;;;;;27.15;10.95;;;;;;;9.37;55.04;102711.09;4903084;29;20059;-48
2022/03/07 08:22:47;;;;;;;20.45;10.70;;;;;;;9.51;54.63;102710.69;4911985;29;20048;-46
2022/03/07 08:25:13;;;;;;;25.13;12.25;;;;;;;9.54;54.38;102710.41;4909503;29;20044;-52
2022/03/07 08:27:39;;;;;;;26.17;10.90;;;;;;;9.64;54.02;102712.19;4905341;29;20048;-48
2022/03/07 08:30:10;;;;;;;17.08;7.63;;;;;;;9.82;53.41;102709.66;4915224;29;20039;-49
2022/03/07 08:32:36;;;;;;;17.60;9.43;;;;;;;10.02;52.80;102721.13;4904694;29;20048;-46
2022/03/07 08:35:04;;;;;;;20.75;9.57;;;;;;;10.00;52.94;102718.56;4910290;29;20038;-45
2022/03/07 08:37:30;;;;;;;22.80;10.73;;;;;;;10.15;52.04;102721.66;4911786;29;20036;-46
2022/03/07 08:39:56;;;;;;;24.17;9.40;;;;;;;10.66;50.29;102718.63;4903238;29;20052;-49
2022/03/07 08:42:21;;;;;;;15.73;7.53;;;;;;;10.94;49.30;102715.06;4915139;29;20037;-47
2022/03/07 08:44:46;;;;;;;16.93;8.80;;;;;;;11.14;48.36;102726.47;4906035;29;20092;-48
2022/03/07 08:47:13;;;;;;;17.17;9.30;;;;;;;11.43;47.75;102712.00;4909028;29;20065;-45
2022/03/07 08:49:39;;;;;;;15.15;8.60;;;;;;;11.72;46.39;102713.53;4912745;29;20045;-47
2022/03/07 08:52:05;;;;;;;23.00;8.48;;;;;;;12.42;44.44;102717.97;4902478;29;20106;-48
2022/03/07 08:54:31;;;;;;;15.20;8.93;;;;;;;12.91;43.19;102717.28;4913913;29;20057;-47
2022/03/07 08:56:56;;;;;;;17.88;8.68;;;;;;;13.20;42.22;102723.22;4906875;29;20143;-46
2022/03/07 08:59:24;;;;;;;15.27;8.17;;;;;;;14.04;40.64;102714.91;4907819;29;20041;-47
2022/03/07 09:01:50;;;;;;;16.70;9.43;;;;;;;14.55;38.92;102715.56;4914412;29;20096;-48
2022/03/07 09:04:15;;;;;;;12.70;7.82;;;;;;;14.83;38.38;102718.63;4906286;29;20077;-46
2022/03/07 09:06:41;;;;;;;12.40;6.90;;;;;;;15.34;37.19;102722.66;4916498;29;20033;-46
2022/03/07 09:09:07;;;;;;;10.90;6.63;;;;;;;16.04;35.45;102722.50;4911827;29;20032;-47
2022/03/07 09:11:32;;;;;;;10.07;6.40;;;;;;;16.50;33.78;102716.06;4909698;29;20060;-49
2022/03/07 09:13:59;;;;;;;11.23;6.40;;;;;;;16.91;33.25;102717.34;4918472;29;20055;-50
2022/03/07 09:16:24;;;;;;;10.47;6.67;;;;;;;17.50;32.41;102718.09;4906378;29;20045;-52
2022/03/07 09:18:50;;;;;;;14.47;6.77;;;;;;;17.78;31.58;102712.69;4915187;29;20065;-50
2022/03/07 09:21:15;;;;;;;10.53;6.83;;;;;;;18.11;30.89;102711.22;4912633;29;20327;-45
2022/03/07 09:23:42;;;;;;;13.52;6.65;;;;;;;18.55;30.22;102711.81;4908274;29;20040;-46
2022/03/07 09:26:09;;;;;;;10.10;6.23;;;;;;;18.84;29.54;102711.69;4918068;29;20033;-48
2022/03/07 09:28:35;;;;;;;8.77;5.27;;;;;;;19.47;28.38;102721.38;4907215;29;20272;-48
2022/03/07 09:31:01;;;;;;;12.47;6.50;;;;;;;19.90;27.88;102711.91;4913308;29;20310;-49
2022/03/07 09:33:28;;;;;;;11.68;5.55;;;;;;;19.69;26.35;102713.00;4913840;29;20051;-50
2022/03/07 09:35:55;;;;;;;9.03;5.40;;;;;;;20.30;26.26;102713.72;4906590;29;20100;-49
2022/03/07 09:38:20;;;;;;;12.23;5.75;;;;;;;21.00;24.84;102712.94;4918059;29;20304;-51
2022/03/07 09:40:47;;;;;;;8.32;5.35;;;;;;;20.89;25.49;102714.47;4908576;29;20048;-53
2022/03/07 09:43:14;;;;;;;10.65;4.97;;;;;;;21.33;24.84;102721.84;4911902;29;20070;-48
2022/03/07 09:45:40;;;;;;;5.97;4.53;;;;;;;21.25;24.12;102720.25;4915138;29;20051;-52
2022/03/07 09:48:05;;;;;;;10.00;4.72;;;;;;;21.48;24.25;102718.81;4905422;29;20311;-47
2022/03/07 09:50:31;;;;;;;13.90;5.35;;;;;;;21.00;24.57;102712.94;4917159;29;20037;-50
2022/03/07 09:52:57;;;;;;;10.02;5.30;;;;;;;21.92;23.83;102727.84;4909573;29;20044;-47
2022/03/07 09:55:24;;;;;;;9.05;5.53;;;;;;;22.60;23.44;102721.56;4910546;29;20092;-50
2022/03/07 09:57:49;;;;;;;14.53;6.13;;;;;;;22.49;23.17;102718.56;4915778;29;20080;-48
2022/03/07 10:00:16;;;;;;;7.28;5.10;;;;;;;22.73;23.51;102712.38;4905172;29;20288;-49
2022/03/07 10:02:58;;;;;;;7.87;5.37;;;;;;;23.12;22.87;102714.72;4915421;29;20041;-52
2022/03/07 10:05:32;;;;;;;13.13;5.50;;;;;;;22.99;22.64;102716.56;4912842;29;20033;-52
2022/03/07 10:07:58;;;;;;;10.83;5.20;;;;;;;23.20;22.14;102714.38;4905800;29;20045;-49
2022/03/07 10:10:29;;;;;;;17.25;5.13;;;;;;;23.31;21.82;102710.84;4917611;29;20033;-52
2022/03/07 10:12:54;;;;;;;7.53;4.90;;;;;;;23.43;21.68;102708.13;4908774;29;20104;-48
2022/03/07 10:15:22;;;;;;;6.57;5.07;;;;;;;23.66;21.83;102702.88;4910438;29;20033;-51
2022/03/07 10:17:50;;;;;;;8.87;5.90;;;;;;;24.28;21.12;102693.28;4915486;29;20084;-51
2022/03/07 10:20:19;;;;;;;11.17;5.30;;;;;;;24.97;20.17;102688.78;4904810;29;20040;-49
2022/03/07 10:22:52;;;;;;;11.77;5.83;;;;;;;24.11;21.08;102694.03;4915032;29;20037;-50
2022/03/07 10:25:27;;;;;;;7.57;5.30;;;;;;;24.36;20.18;102684.69;4911565;29;20043;-53
2022/03/07 10:27:52;;;;;;;8.47;5.10;;;;;;;25.26;19.86;102684.03;4906229;29;20061;-48
2022/03/07 10:30:20;;;;;;;;;;;;;;;25.61;20.08;102691.16;4917270;29;20048;-48
2022/03/07 10:32:57;;;;;;;5.40;3.57;;;;;;;24.65;20.58;102676.44;4907192;29;19926;-50
2022/03/07 10:35:29;;;;;;;9.23;4.13;;;;;;;24.72;20.02;102671.66;4910146;29;20048;-52
2022/03/07 10:37:58;;;;;;;5.70;3.67;;;;;;;24.08;21.09;102675.41;4915949;29;20037;-51
2022/03/07 10:40:23;;;;;;;9.47;4.30;;;;;;;24.67;20.18;102668.81;4904535;29;20043;-52
2022/03/07 10:42:50;;;;;;;;;;;;;;;25.18;19.77;102665.31;4914627;29;20025;-53
2022/03/07 10:45:16;;;;;;;7.20;4.03;;;;;;;25.14;19.18;102667.69;4910948;29;19915;-52
2022/03/07 10:47:42;;;;;;;;;;;;;;;24.83;19.77;102658.16;4907627;29;20130;-51
2022/03/07 10:50:09;;;;;;;6.13;3.33;;;;;;;25.43;20.12;102655.81;4916551;29;19915;-47
2022/03/07 10:52:39;;;;;;;4.00;2.87;;;;;;;25.12;20.05;102658.06;4905248;29;20103;-50
2022/03/07 10:55:07;;;;;;;5.03;3.40;;;;;;;24.67;20.82;102655.13;4911917;29;20037;-51
2022/03/07 10:57:38;;;;;;;5.77;3.50;;;;;;;24.60;19.52;102657.22;4912470;29;20064;-50
2022/03/07 11:00:23;;;;;;;9.27;4.20;;;;;;;25.20;19.11;102641.25;4904218;29;20045;-49
2022/03/07 11:02:49;;;;;;;7.97;3.40;;;;;;;26.16;18.33;102641.94;4913910;29;20043;-48
2022/03/07 11:05:16;;;;;;;;;;;;;;;26.51;18.20;102644.47;4910567;29;20048;-48
2022/03/07 11:07:47;;;;;;;11.80;4.47;;;;;;;27.02;17.77;102636.69;4906877;29;19944;-51
2022/03/07 11:10:15;;;;;;;4.60;3.63;;;;;;;27.03;18.03;102643.84;4902032;29;20033;-51
2022/03/07 11:12:41;;;;;;;7.23;4.00;;;;;;;27.58;17.90;102637.31;4914773;29;20067;-50
2022/03/07 11:15:09;;;;;;;5.90;4.13;;;;;;;27.66;17.70;102634.03;4909094;29;20048;-51
2022/03/07 11:17:40;;;;;;;5.80;3.63;;;;;;;27.51;17.65;102626.56;4907961;29;20117;-54
2022/03/07 11:20:09;;;;;;;6.73;3.43;;;;;;;27.55;17.83;102624.91;4916146;29;20151;-49
2022/03/07 11:22:34;;;;;;;5.37;3.60;;;;;;;28.28;16.98;102627.88;4904740;29;20040;-53